Time;durP1;ratioP1;P1;durP2;ratioP2;P2;SDS_P1;SDS_P2;PMS_P1;PMS_P2;Temp;Humidity;BMP_temperature;BMP_pressure;BME280_temperature;BME280_humidity;BME280_pressure;Samples;Min_cycle;Max_cycle;Signal;HPM_P1;HPM_P2
2023/01/23 00:01:12;;;;;;;16.07;11.43;;;2.10;99.90;;;;;;5005584;28;20442;-67
2023/01/23 00:03:38;;;;;;;14.90;9.97;;;2.10;99.90;;;;;;5006731;28;20786;-67
2023/01/23 00:06:08;;;;;;;16.80;10.00;;;2.10;99.90;;;;;;5005240;28;20427;-68
2023/01/23 00:08:34;;;;;;;18.03;11.60;;;2.10;99.90;;;;;;5007065;28;20181;-67
2023/01/23 00:11:04;;;;;;;18.10;11.47;;;2.10;99.90;;;;;;5006552;28;20459;-67
2023/01/23 00:13:30;;;;;;;17.70;10.00;;;2.10;99.90;;;;;;5006736;28;20442;-67
2023/01/23 00:15:55;;;;;;;17.77;9.77;;;2.10;99.90;;;;;;5002818;28;20423;-67
2023/01/23 00:18:21;;;;;;;15.57;10.60;;;2.20;99.90;;;;;;5005904;28;20643;-67
2023/01/23 00:20:47;;;;;;;16.67;11.20;;;2.10;99.90;;;;;;5007117;28;20655;-66
2023/01/23 00:23:13;;;;;;;17.53;11.37;;;2.10;99.90;;;;;;5003903;28;20334;-67
2023/01/23 00:25:38;;;;;;;23.53;12.03;;;2.20;99.90;;;;;;5004872;28;20670;-68
2023/01/23 00:28:04;;;;;;;20.33;11.23;;;2.20;99.90;;;;;;5006028;28;20439;-67
2023/01/23 00:30:30;;;;;;;16.43;8.73;;;2.20;99.90;;;;;;5005737;28;20573;-67
2023/01/23 00:32:55;;;;;;;16.10;9.97;;;2.10;99.90;;;;;;5005265;28;20173;-68
2023/01/23 00:35:22;;;;;;;22.43;11.97;;;2.10;99.90;;;;;;5005820;28;20208;-67
2023/01/23 00:37:47;;;;;;;20.77;10.80;;;2.10;99.90;;;;;;4994344;28;20449;-66
2023/01/23 00:40:13;;;;;;;20.10;11.03;;;2.10;99.90;;;;;;5010769;28;20458;-68
2023/01/23 00:42:39;;;;;;;19.00;11.73;;;2.10;99.90;;;;;;5010539;28;20177;-66
2023/01/23 00:45:05;;;;;;;17.83;9.83;;;2.10;99.90;;;;;;5010651;28;20187;-67
2023/01/23 00:47:31;;;;;;;17.13;11.33;;;2.10;99.90;;;;;;5009884;28;20485;-68
2023/01/23 00:49:57;;;;;;;17.77;10.97;;;2.10;99.90;;;;;;5006277;28;20463;-69
2023/01/23 00:52:24;;;;;;;21.73;10.77;;;2.10;99.90;;;;;;5006092;28;20206;-67
2023/01/23 00:54:49;;;;;;;26.70;11.63;;;2.10;99.90;;;;;;5007555;28;20949;-69
2023/01/23 00:57:15;;;;;;;22.93;12.60;;;2.10;99.90;;;;;;5007858;28;20469;-67
2023/01/23 00:59:40;;;;;;;16.53;9.33;;;2.10;99.90;;;;;;5009356;28;20582;-66
2023/01/23 01:02:06;;;;;;;20.10;10.40;;;2.10;99.90;;;;;;5008437;28;20259;-68
2023/01/23 01:04:32;;;;;;;23.03;12.40;;;2.10;99.90;;;;;;5006050;28;20176;-68
2023/01/23 01:06:57;;;;;;;15.37;11.63;;;2.20;99.90;;;;;;5041982;22;20507;-71
2023/01/23 01:09:23;;;;;;;19.77;10.57;;;2.20;99.90;;;;;;5016486;28;20206;-72
2023/01/23 01:11:49;;;;;;;12.60;8.77;;;2.20;99.90;;;;;;5016487;28;20634;-72
2023/01/23 01:14:15;;;;;;;14.83;10.83;;;2.20;99.90;;;;;;5026250;28;20471;-72
2023/01/23 01:16:44;;;;;;;18.17;11.87;;;2.20;99.90;;;;;;5032526;28;21014;-72
2023/01/23 01:19:10;;;;;;;19.13;11.17;;;2.20;99.90;;;;;;5032398;28;20241;-72
2023/01/23 01:21:37;;;;;;;18.83;11.50;;;2.20;99.90;;;;;;5032346;28;20414;-72
2023/01/23 01:24:04;;;;;;;23.23;13.07;;;2.20;99.90;;;;;;5032312;28;20411;-71
2023/01/23 01:26:29;;;;;;;23.80;13.13;;;2.20;99.90;;;;;;5023943;28;20888;-71
2023/01/23 01:28:55;;;;;;;19.70;11.10;;;2.20;99.90;;;;;;5031875;28;20448;-71
2023/01/23 01:31:21;;;;;;;19.33;11.07;;;2.20;99.90;;;;;;5032177;28;20606;-71
2023/01/23 01:33:47;;;;;;;15.67;9.80;;;2.10;99.90;;;;;;5031879;28;20407;-71
2023/01/23 01:36:16;;;;;;;19.93;10.77;;;2.10;99.90;;;;;;5031142;28;20270;-71
2023/01/23 01:38:42;;;;;;;22.13;10.97;;;2.10;99.90;;;;;;5029466;28;20496;-71
2023/01/23 01:41:09;;;;;;;17.83;10.33;;;2.20;99.90;;;;;;5031980;28;20485;-71
2023/01/23 01:43:35;;;;;;;22.30;12.57;;;2.20;99.90;;;;;;5023368;28;20662;-72
2023/01/23 01:46:16;;;;;;;20.73;10.47;;;2.20;99.90;;;;;;5024028;28;20469;-72
2023/01/23 01:49:18;;;;;;;16.13;9.97;;;2.20;99.90;;;;;;5031775;28;20630;-72
2023/01/23 01:51:53;;;;;;;21.83;11.37;;;2.20;99.90;;;;;;5016797;28;20438;-72
2023/01/23 01:54:39;;;;;;;13.80;10.20;;;2.20;99.90;;;;;;5032037;28;20414;-72
2023/01/23 01:57:18;;;;;;;20.33;12.40;;;2.20;99.90;;;;;;5011770;28;20521;-72
2023/01/23 01:59:54;;;;;;;17.47;11.43;;;2.20;99.90;;;;;;5031641;28;20851;-71
2023/01/23 02:02:31;;;;;;;18.13;11.87;;;2.20;99.90;;;;;;5031877;28;20442;-72
2023/01/23 02:05:04;;;;;;;18.60;11.50;;;2.20;99.90;;;;;;5031637;28;20410;-72
2023/01/23 02:07:38;;;;;;;17.53;11.00;;;2.20;99.90;;;;;;5031903;28;20457;-72
2023/01/23 02:10:06;;;;;;;16.93;10.47;;;2.20;99.90;;;;;;5024202;28;20492;-72
2023/01/23 02:12:34;;;;;;;17.73;10.17;;;2.20;99.90;;;;;;5031444;28;20428;-72
2023/01/23 02:15:01;;;;;;;15.73;11.57;;;2.20;99.90;;;;;;5023665;28;20446;-72
2023/01/23 02:17:27;;;;;;;17.00;11.07;;;2.20;99.90;;;;;;5005400;28;20481;-72
2023/01/23 02:20:14;;;;;;;25.07;12.60;;;2.30;99.90;;;;;;5031398;28;20524;-72
2023/01/23 02:23:21;;;;;;;18.07;10.77;;;2.20;99.90;;;;;;5031489;28;20453;-72
2023/01/23 02:25:56;;;;;;;20.80;11.60;;;2.20;99.90;;;;;;5031184;28;20441;-72
2023/01/23 02:28:22;;;;;;;17.63;11.13;;;2.20;99.90;;;;;;5031423;28;20414;-72
2023/01/23 02:30:49;;;;;;;20.90;10.90;;;2.30;99.90;;;;;;5031082;28;20548;-71
2023/01/23 02:33:18;;;;;;;20.83;13.17;;;2.30;99.90;;;;;;5031334;28;20410;-72
2023/01/23 02:35:43;;;;;;;24.57;11.67;;;2.30;99.90;;;;;;5031054;28;20438;-72
2023/01/23 02:38:09;;;;;;;18.87;12.47;;;2.30;99.90;;;;;;5030915;28;20815;-72
2023/01/23 02:40:39;;;;;;;20.87;10.00;;;2.30;99.90;;;;;;5030865;28;20179;-72
2023/01/23 02:43:07;;;;;;;16.77;11.27;;;2.30;99.90;;;;;;5030750;28;20623;-71
2023/01/23 02:45:33;;;;;;;19.70;12.87;;;2.30;99.90;;;;;;5030605;28;20469;-71
2023/01/23 02:48:00;;;;;;;16.00;10.63;;;2.30;99.90;;;;;;5030745;28;20453;-71
2023/01/23 02:50:29;;;;;;;20.13;11.43;;;2.30;99.90;;;;;;5030643;28;20572;-72
2023/01/23 02:52:56;;;;;;;20.33;12.63;;;2.30;99.90;;;;;;5029087;28;20497;-71
2023/01/23 02:55:22;;;;;;;14.90;10.80;;;2.20;99.90;;;;;;5025665;28;20406;-73
2023/01/23 02:57:48;;;;;;;14.03;9.53;;;2.30;99.90;;;;;;5030530;28;20512;-72
2023/01/23 03:00:18;;;;;;;19.93;11.73;;;2.20;99.90;;;;;;5030750;28;20175;-71
2023/01/23 03:02:46;;;;;;;17.57;11.80;;;2.20;99.90;;;;;;5030522;28;20171;-72
2023/01/23 03:05:12;;;;;;;22.47;11.50;;;2.20;99.90;;;;;;5030833;28;20429;-72
2023/01/23 03:07:37;;;;;;;18.03;10.00;;;2.20;99.90;;;;;;5030163;28;20453;-72
2023/01/23 03:10:04;;;;;;;17.43;11.77;;;2.20;99.90;;;;;;5029498;28;20544;-72
2023/01/23 03:12:30;;;;;;;16.50;11.07;;;2.20;99.90;;;;;;5030373;28;20638;-72
2023/01/23 03:14:57;;;;;;;19.17;10.73;;;2.20;99.90;;;;;;5030098;28;20497;-72
2023/01/23 03:17:23;;;;;;;16.13;10.70;;;2.30;99.90;;;;;;5030546;28;20188;-71
2023/01/23 03:19:49;;;;;;;17.87;10.90;;;2.30;99.90;;;;;;5030035;28;20414;-72
2023/01/23 03:22:14;;;;;;;22.17;10.97;;;2.30;99.90;;;;;;5030270;28;20501;-72
2023/01/23 03:24:40;;;;;;;19.93;11.87;;;2.30;99.90;;;;;;5030195;28;20642;-72
2023/01/23 03:27:06;;;;;;;23.87;12.20;;;2.30;99.90;;;;;;5030092;28;20313;-72
2023/01/23 03:32:16;;;;;;;21.40;12.53;;;2.30;99.90;;;;;;5025509;28;20655;-73
2023/01/23 03:34:42;;;;;;;16.37;11.37;;;2.30;99.90;;;;;;5029958;28;20992;-72
2023/01/23 03:37:10;;;;;;;17.97;11.57;;;2.20;99.90;;;;;;5029810;28;20191;-71
2023/01/23 03:42:21;;;;;;;18.37;11.23;;;2.20;99.90;;;;;;5030292;28;20967;-71
2023/01/23 03:44:47;;;;;;;17.50;12.03;;;2.20;99.90;;;;;;5029893;28;20407;-74
2023/01/23 03:47:12;;;;;;;16.83;12.13;;;2.20;99.90;;;;;;5030053;28;20438;-71
2023/01/23 03:49:38;;;;;;;18.83;10.63;;;2.30;99.90;;;;;;5029920;28;20545;-71
2023/01/23 03:52:04;;;;;;;18.23;10.30;;;2.20;99.90;;;;;;5030178;28;20168;-73
2023/01/23 03:54:29;;;;;;;15.17;10.10;;;2.20;99.90;;;;;;5028146;28;20247;-72
2023/01/23 03:56:55;;;;;;;20.30;11.73;;;2.20;99.90;;;;;;5029528;28;20426;-72
2023/01/23 03:59:21;;;;;;;17.57;9.93;;;2.30;99.90;;;;;;5029481;28;20338;-71
2023/01/23 04:01:47;;;;;;;17.03;9.93;;;2.30;99.90;;;;;;5029533;28;20172;-71
2023/01/23 04:04:12;;;;;;;21.93;11.30;;;2.20;99.90;;;;;;5029969;28;20547;-71
2023/01/23 04:06:38;;;;;;;16.93;10.77;;;2.20;99.90;;;;;;5029622;28;20215;-71
2023/01/23 04:09:04;;;;;;;21.70;14.30;;;2.20;99.90;;;;;;5029357;28;20210;-71
2023/01/23 04:11:30;;;;;;;22.47;10.70;;;2.20;99.90;;;;;;5029546;28;20254;-72
2023/01/23 04:13:55;;;;;;;21.40;12.03;;;2.20;99.90;;;;;;5029570;28;20425;-71
2023/01/23 04:16:21;;;;;;;22.17;15.00;;;2.20;99.90;;;;;;5029512;28;20188;-71
2023/01/23 04:18:48;;;;;;;18.27;11.47;;;2.20;99.90;;;;;;5029675;28;20172;-71
2023/01/23 04:21:14;;;;;;;22.70;11.37;;;2.20;99.90;;;;;;5031885;28;20410;-71
2023/01/23 04:23:39;;;;;;;17.33;11.83;;;2.20;99.90;;;;;;5033867;28;20446;-71
2023/01/23 04:26:05;;;;;;;24.07;12.57;;;2.20;99.90;;;;;;5033007;28;20677;-71
2023/01/23 04:28:30;;;;;;;19.87;12.13;;;2.20;99.90;;;;;;5032983;28;20183;-72
2023/01/23 04:30:56;;;;;;;23.80;11.80;;;2.20;99.90;;;;;;5032870;28;20206;-72
2023/01/23 04:33:22;;;;;;;24.00;13.17;;;2.20;99.90;;;;;;5033149;28;20168;-71
2023/01/23 04:35:54;;;;;;;19.80;12.30;;;2.20;99.90;;;;;;5032855;28;20547;-72
2023/01/23 04:38:20;;;;;;;16.70;12.20;;;2.20;99.90;;;;;;5033028;28;20535;-72
2023/01/23 04:40:48;;;;;;;22.83;12.93;;;2.20;99.90;;;;;;5033203;28;20929;-71
2023/01/23 04:43:14;;;;;;;18.20;12.20;;;2.20;99.90;;;;;;5026871;28;20423;-71
2023/01/23 04:45:39;;;;;;;18.90;11.43;;;2.20;99.90;;;;;;5032514;28;20429;-72
2023/01/23 04:48:05;;;;;;;19.23;12.20;;;2.10;99.90;;;;;;5032601;28;20230;-72
2023/01/23 04:50:31;;;;;;;23.13;13.80;;;2.10;99.90;;;;;;5014945;28;20215;-72
2023/01/23 04:52:57;;;;;;;18.67;11.93;;;2.20;99.90;;;;;;5032714;28;20246;-72
2023/01/23 04:55:23;;;;;;;19.63;11.53;;;2.20;99.90;;;;;;5033060;28;20585;-72
2023/01/23 04:57:49;;;;;;;17.27;11.40;;;2.20;99.90;;;;;;5032516;28;20191;-71
2023/01/23 05:00:15;;;;;;;22.27;12.50;;;2.20;99.90;;;;;;5032241;28;20480;-73
2023/01/23 05:02:44;;;;;;;23.67;14.83;;;2.20;99.90;;;;;;5032312;28;20505;-71
2023/01/23 05:05:11;;;;;;;23.73;12.13;;;2.30;99.90;;;;;;5032191;28;20896;-71
2023/01/23 05:07:37;;;;;;;18.50;10.77;;;2.20;99.90;;;;;;5032246;28;20511;-71
2023/01/23 05:10:03;;;;;;;17.47;12.00;;;2.20;99.90;;;;;;5031850;28;20458;-71
2023/01/23 05:12:28;;;;;;;22.50;12.90;;;2.20;99.90;;;;;;5032044;28;20179;-72
2023/01/23 05:14:54;;;;;;;23.17;11.70;;;2.20;99.90;;;;;;5031879;28;20413;-72
2023/01/23 05:17:20;;;;;;;19.10;12.50;;;2.10;99.90;;;;;;5031872;28;20341;-72
2023/01/23 05:19:45;;;;;;;23.80;12.57;;;2.10;99.90;;;;;;5031872;28;20179;-72
2023/01/23 05:22:11;;;;;;;19.93;12.13;;;2.10;99.90;;;;;;5031884;28;20176;-72
2023/01/23 05:24:36;;;;;;;19.20;11.13;;;2.10;99.90;;;;;;5031926;28;20175;-71
2023/01/23 05:27:02;;;;;;;18.97;10.80;;;2.10;99.90;;;;;;5031680;28;20245;-72
2023/01/23 05:29:28;;;;;;;20.40;11.53;;;2.10;99.90;;;;;;5032005;28;20226;-73
2023/01/23 05:31:53;;;;;;;21.53;11.93;;;2.20;99.90;;;;;;5031261;28;20172;-72
2023/01/23 05:34:19;;;;;;;16.13;10.63;;;2.10;99.90;;;;;;5032245;28;20545;-72
2023/01/23 05:36:44;;;;;;;23.13;12.93;;;2.20;99.90;;;;;;5014125;28;20534;-72
2023/01/23 05:39:10;;;;;;;19.33;11.23;;;2.20;99.90;;;;;;5031820;28;20179;-74
2023/01/23 05:41:36;;;;;;;20.37;11.33;;;2.20;99.90;;;;;;5031588;28;20697;-72
2023/01/23 05:44:01;;;;;;;22.87;12.07;;;2.20;99.90;;;;;;5031664;28;20289;-73
2023/01/23 05:46:27;;;;;;;17.90;12.20;;;2.20;99.90;;;;;;5031601;28;20322;-71
2023/01/23 05:48:52;;;;;;;23.63;14.20;;;2.20;99.90;;;;;;5019378;28;20183;-73
2023/01/23 05:51:18;;;;;;;18.80;12.03;;;2.20;99.90;;;;;;5031753;28;20179;-72
2023/01/23 05:53:44;;;;;;;24.43;13.30;;;2.20;99.90;;;;;;5028980;28;20283;-72
2023/01/23 05:56:10;;;;;;;18.70;11.13;;;2.20;99.90;;;;;;5027945;28;20194;-72
2023/01/23 05:58:35;;;;;;;21.17;13.30;;;2.20;99.90;;;;;;5031312;28;20449;-72
2023/01/23 06:01:02;;;;;;;18.30;11.80;;;2.20;99.90;;;;;;5031370;28;20256;-72
2023/01/23 06:03:28;;;;;;;24.13;13.73;;;2.20;99.90;;;;;;5031130;28;20175;-72
2023/01/23 06:05:54;;;;;;;19.30;12.37;;;2.20;99.90;;;;;;5014607;28;20442;-72
2023/01/23 06:08:19;;;;;;;20.10;12.30;;;2.20;99.90;;;;;;5030940;28;20210;-72
2023/01/23 06:10:45;;;;;;;22.03;13.43;;;2.20;99.90;;;;;;5031033;28;20191;-72
2023/01/23 06:13:10;;;;;;;24.07;12.27;;;2.20;99.90;;;;;;5031135;28;20171;-72
2023/01/23 06:15:36;;;;;;;19.57;13.93;;;2.20;99.90;;;;;;5030933;28;20214;-72
2023/01/23 06:18:02;;;;;;;21.53;13.10;;;2.20;99.90;;;;;;5031063;28;20199;-72
2023/01/23 06:20:27;;;;;;;18.07;11.30;;;2.30;99.90;;;;;;5030924;28;20203;-72
2023/01/23 06:22:53;;;;;;;26.07;11.60;;;2.30;99.90;;;;;;5031013;28;20546;-72
2023/01/23 06:25:20;;;;;;;25.70;12.83;;;2.30;99.90;;;;;;5030860;28;20186;-72
2023/01/23 06:27:46;;;;;;;21.70;11.93;;;2.30;99.90;;;;;;5031127;28;20245;-72
2023/01/23 06:30:12;;;;;;;16.23;10.60;;;2.20;99.90;;;;;;5035178;28;20458;-72
2023/01/23 06:32:38;;;;;;;19.60;11.97;;;2.20;99.90;;;;;;5036973;28;20179;-72
2023/01/23 06:35:04;;;;;;;17.63;11.50;;;2.20;99.90;;;;;;5030967;28;20876;-72
2023/01/23 06:37:30;;;;;;;21.43;11.70;;;2.20;99.90;;;;;;5030759;28;20473;-73
2023/01/23 06:39:56;;;;;;;23.87;13.23;;;2.20;99.90;;;;;;5030699;28;20733;-73
2023/01/23 06:42:21;;;;;;;17.20;12.70;;;2.20;99.90;;;;;;5030627;28;20414;-72
2023/01/23 06:44:47;;;;;;;22.87;12.10;;;2.10;99.90;;;;;;5029499;28;20198;-72
2023/01/23 06:47:12;;;;;;;21.83;12.00;;;2.10;99.90;;;;;;5030332;28;20219;-72
2023/01/23 06:49:38;;;;;;;19.27;10.83;;;2.10;99.90;;;;;;5029912;28;20630;-72
2023/01/23 06:52:04;;;;;;;22.97;12.93;;;2.10;99.90;;;;;;5030348;28;20274;-72
2023/01/23 06:54:30;;;;;;;19.13;12.07;;;2.10;99.90;;;;;;5030248;28;20402;-71
2023/01/23 06:56:55;;;;;;;17.40;12.30;;;2.10;99.90;;;;;;5029892;28;20191;-72
2023/01/23 06:59:22;;;;;;;16.20;12.63;;;2.10;99.90;;;;;;5029921;28;20176;-72
2023/01/23 07:01:47;;;;;;;20.27;11.87;;;2.10;99.90;;;;;;5014559;28;20186;-72
2023/01/23 07:04:13;;;;;;;20.10;11.50;;;2.10;99.90;;;;;;5029959;28;20406;-72
2023/01/23 07:06:45;;;;;;;22.47;12.73;;;2.10;99.90;;;;;;5090240;22;22243;-70
2023/01/23 07:09:11;;;;;;;22.00;13.00;;;2.10;99.90;;;;;;5067719;28;20448;-71
2023/01/23 07:11:37;;;;;;;24.20;14.60;;;2.10;99.90;;;;;;5079697;28;20404;-70
2023/01/23 07:14:03;;;;;;;18.40;13.13;;;2.00;99.90;;;;;;5081105;28;20208;-70
2023/01/23 07:16:29;;;;;;;17.50;12.00;;;2.00;99.90;;;;;;5083636;28;20431;-71
2023/01/23 07:18:57;;;;;;;17.23;11.60;;;2.00;99.90;;;;;;5077579;28;20671;-70
2023/01/23 07:21:23;;;;;;;18.50;11.73;;;2.00;99.90;;;;;;5081673;28;20170;-70
2023/01/23 07:23:49;;;;;;;22.50;12.57;;;2.10;99.90;;;;;;5077826;28;20402;-70
2023/01/23 07:26:15;;;;;;;20.93;12.77;;;2.10;99.90;;;;;;5081458;28;20197;-70
2023/01/23 07:28:41;;;;;;;19.70;11.50;;;2.10;99.90;;;;;;5094626;28;20428;-71
2023/01/23 07:31:07;;;;;;;18.30;12.00;;;2.10;99.90;;;;;;5081645;28;20212;-70
2023/01/23 07:33:32;;;;;;;19.23;12.90;;;2.10;99.90;;;;;;5080318;28;20311;-70
2023/01/23 07:35:58;;;;;;;22.80;12.53;;;2.10;99.90;;;;;;5073824;28;20174;-68
2023/01/23 07:38:24;;;;;;;27.93;14.73;;;2.10;99.90;;;;;;5074522;28;20186;-71
2023/01/23 07:40:50;;;;;;;23.17;13.60;;;2.10;99.90;;;;;;5080467;28;20636;-71
2023/01/23 07:43:16;;;;;;;28.57;14.90;;;2.10;99.90;;;;;;5081996;28;20404;-69
2023/01/23 07:45:42;;;;;;;23.67;13.10;;;2.10;99.90;;;;;;5078616;28;20462;-69
2023/01/23 07:48:08;;;;;;;22.47;12.47;;;2.20;99.90;;;;;;5070905;28;20210;-69
2023/01/23 07:50:34;;;;;;;23.33;13.23;;;2.20;99.90;;;;;;5082161;28;20683;-68
2023/01/23 07:53:00;;;;;;;26.43;14.93;;;2.20;99.90;;;;;;5076261;28;20404;-69
2023/01/23 07:55:26;;;;;;;19.20;11.50;;;2.10;99.90;;;;;;5082646;28;20580;-70
2023/01/23 07:57:51;;;;;;;27.33;16.50;;;2.20;99.90;;;;;;5072390;28;21154;-68
2023/01/23 08:00:17;;;;;;;23.03;13.13;;;2.30;99.90;;;;;;5076235;28;20181;-69
2023/01/23 08:02:43;;;;;;;23.77;13.43;;;2.50;99.90;;;;;;5078344;28;20216;-70
2023/01/23 08:05:09;;;;;;;21.13;12.90;;;2.40;99.90;;;;;;5064776;28;20198;-70
2023/01/23 08:07:34;;;;;;;19.60;12.93;;;2.30;99.90;;;;;;5071747;28;20751;-70
2023/01/23 08:10:00;;;;;;;18.73;12.63;;;2.20;99.90;;;;;;5078961;28;20178;-70
2023/01/23 08:12:25;;;;;;;24.47;15.70;;;2.20;99.90;;;;;;5080724;28;20269;-70
2023/01/23 08:14:51;;;;;;;23.93;12.70;;;2.10;99.90;;;;;;5092191;28;20223;-70
2023/01/23 08:17:16;;;;;;;30.10;13.00;;;2.20;99.90;;;;;;5067106;28;20626;-70
2023/01/23 08:19:42;;;;;;;24.73;12.53;;;2.20;99.90;;;;;;5068756;28;20189;-71
2023/01/23 08:22:07;;;;;;;22.17;12.67;;;2.30;99.90;;;;;;5057924;28;20171;-71
2023/01/23 08:24:33;;;;;;;15.20;11.17;;;2.30;99.90;;;;;;5069961;28;20628;-71
2023/01/23 08:26:59;;;;;;;20.77;11.97;;;2.30;99.90;;;;;;5056317;28;20190;-70
2023/01/23 08:29:24;;;;;;;22.90;12.83;;;2.30;99.90;;;;;;5062209;28;20159;-71
2023/01/23 08:31:53;;;;;;;20.20;13.00;;;2.20;99.90;;;;;;5068075;28;20215;-70
2023/01/23 08:34:19;;;;;;;18.33;12.40;;;2.30;99.90;;;;;;5056314;28;20194;-71
2023/01/23 08:36:45;;;;;;;23.80;12.20;;;2.30;99.90;;;;;;5067033;28;20926;-71
2023/01/23 08:39:11;;;;;;;20.10;12.87;;;2.30;99.90;;;;;;5062286;28;20471;-71
2023/01/23 08:41:36;;;;;;;18.30;12.27;;;2.20;99.90;;;;;;5068141;28;20183;-71
2023/01/23 08:44:03;;;;;;;19.07;11.80;;;2.20;99.90;;;;;;5062149;28;20413;-70
2023/01/23 08:46:28;;;;;;;18.43;11.77;;;2.20;99.90;;;;;;5061161;28;20267;-70
2023/01/23 08:48:54;;;;;;;22.40;11.17;;;2.20;99.90;;;;;;5059718;28;20409;-70
2023/01/23 08:51:20;;;;;;;22.93;13.70;;;2.30;99.90;;;;;;5056551;28;20167;-71
2023/01/23 08:53:46;;;;;;;19.23;12.37;;;2.30;99.90;;;;;;5068319;28;20404;-70
2023/01/23 08:56:17;;;;;;;24.60;12.20;;;2.30;99.90;;;;;;5063085;28;20469;-70
2023/01/23 08:58:44;;;;;;;20.93;12.17;;;2.40;99.90;;;;;;5067891;28;20198;-70
2023/01/23 09:01:14;;;;;;;21.20;11.93;;;2.30;99.90;;;;;;5056780;28;20417;-71
2023/01/23 09:03:40;;;;;;;22.53;13.97;;;2.30;99.90;;;;;;5069556;28;20938;-69
2023/01/23 09:06:06;;;;;;;21.77;12.10;;;2.40;99.90;;;;;;5059810;28;20453;-71
2023/01/23 09:08:33;;;;;;;23.57;14.03;;;2.40;99.90;;;;;;5057792;28;20687;-70
2023/01/23 09:11:00;;;;;;;21.63;12.37;;;2.40;99.90;;;;;;5054065;28;20409;-70
2023/01/23 09:13:26;;;;;;;22.20;11.80;;;2.40;99.90;;;;;;5061171;28;20409;-71
2023/01/23 09:15:51;;;;;;;22.10;12.70;;;2.40;99.90;;;;;;5064708;28;20417;-70
2023/01/23 09:18:17;;;;;;;20.33;12.37;;;2.50;99.90;;;;;;5065188;28;20190;-69
2023/01/23 09:20:43;;;;;;;18.13;11.80;;;2.40;99.90;;;;;;5062507;28;20341;-70
2023/01/23 09:23:08;;;;;;;22.37;13.70;;;2.50;99.90;;;;;;5060128;28;20183;-69
2023/01/23 09:25:34;;;;;;;24.03;15.03;;;2.60;99.90;;;;;;5061358;28;20232;-70
2023/01/23 09:28:00;;;;;;;19.03;13.17;;;2.50;99.90;;;;;;5064054;28;20189;-70
2023/01/23 09:30:26;;;;;;;21.07;14.93;;;2.50;99.90;;;;;;5064738;28;20171;-69
2023/01/23 09:32:52;;;;;;;18.00;11.43;;;2.50;99.90;;;;;;5063317;28;20468;-70
2023/01/23 09:35:18;;;;;;;23.60;12.67;;;2.50;99.90;;;;;;5064397;28;20514;-70
2023/01/23 09:37:58;;;;;;;19.10;12.53;;;2.50;99.90;;;;;;5060452;28;20433;-70
2023/01/23 09:40:28;;;;;;;22.87;12.67;;;2.50;99.90;;;;;;5064312;28;20170;-71
2023/01/23 09:42:58;;;;;;;22.43;12.17;;;2.50;99.90;;;;;;5063125;28;20422;-70
2023/01/23 09:45:26;;;;;;;23.10;13.27;;;2.50;99.90;;;;;;5064097;28;20494;-70
2023/01/23 09:48:15;;;;;;;18.67;13.23;;;2.50;99.90;;;;;;5076715;28;20500;-69
2023/01/23 09:50:59;;;;;;;19.60;12.60;;;2.60;99.90;;;;;;5057664;28;20407;-71
2023/01/23 09:53:30;;;;;;;22.30;12.37;;;2.60;99.90;;;;;;5066113;28;20407;-71
2023/01/23 09:56:01;;;;;;;22.80;13.03;;;2.60;99.90;;;;;;5060878;28;20409;-71
2023/01/23 09:58:35;;;;;;;23.83;14.27;;;2.60;99.90;;;;;;5066232;28;20428;-72
2023/01/23 10:01:00;;;;;;;16.87;12.00;;;2.60;99.90;;;;;;5056368;28;20413;-70
2023/01/23 10:03:30;;;;;;;18.00;11.30;;;2.60;99.90;;;;;;5067670;28;20899;-70
2023/01/23 10:06:05;;;;;;;20.70;12.90;;;2.60;99.90;;;;;;5061331;28;20598;-71
2023/01/23 10:08:51;;;;;;;19.00;12.43;;;2.70;99.90;;;;;;5060787;28;20815;-70
2023/01/23 10:11:20;;;;;;;16.90;11.50;;;2.70;99.90;;;;;;5055676;28;20394;-69
2023/01/23 10:14:15;;;;;;;18.57;12.87;;;2.70;99.90;;;;;;5061424;28;20771;-69
2023/01/23 10:17:12;;;;;;;18.57;13.03;;;2.70;99.90;;;;;;5064714;28;20432;-70
2023/01/23 10:20:17;;;;;;;19.00;12.83;;;2.80;99.90;;;;;;5045924;28;20848;-69
2023/01/23 10:23:18;;;;;;;20.83;12.80;;;2.80;99.90;;;;;;5042807;28;20440;-69
2023/01/23 10:25:44;;;;;;;23.00;12.70;;;2.80;99.90;;;;;;5057475;28;20456;-70
2023/01/23 10:28:23;;;;;;;26.90;13.90;;;2.80;99.90;;;;;;5063693;28;20424;-70
2023/01/23 10:30:57;;;;;;;17.80;12.43;;;2.80;99.90;;;;;;5060949;28;20178;-70
2023/01/23 10:33:35;;;;;;;18.47;12.40;;;2.80;99.90;;;;;;5058411;28;20732;-70
2023/01/23 10:36:39;;;;;;;29.97;13.13;;;2.80;99.90;;;;;;5061967;28;20420;-70
2023/01/23 10:39:20;;;;;;;15.10;11.40;;;2.80;99.90;;;;;;5056817;28;20417;-69
2023/01/23 10:41:46;;;;;;;17.13;11.63;;;2.90;99.90;;;;;;5067484;28;20419;-71
2023/01/23 10:44:15;;;;;;;19.20;12.83;;;3.00;99.90;;;;;;5059925;28;20410;-70
2023/01/23 10:46:49;;;;;;;17.20;12.63;;;3.00;99.90;;;;;;5067624;28;20339;-71
2023/01/23 10:49:34;;;;;;;21.93;11.70;;;2.90;99.90;;;;;;5056902;28;20406;-70
2023/01/23 10:51:59;;;;;;;19.73;13.93;;;2.90;99.90;;;;;;5044277;28;20401;-70
2023/01/23 10:54:27;;;;;;;21.07;13.40;;;2.90;99.90;;;;;;5059644;28;20765;-70
2023/01/23 10:57:02;;;;;;;21.63;13.57;;;3.00;99.90;;;;;;5062409;28;20288;-70
2023/01/23 10:59:33;;;;;;;21.67;13.57;;;2.90;99.90;;;;;;5062621;28;20491;-70
2023/01/23 11:02:17;;;;;;;17.40;11.73;;;2.90;99.90;;;;;;5049251;28;20400;-70
2023/01/23 11:04:45;;;;;;;21.77;12.97;;;2.90;99.90;;;;;;5075465;28;20625;-70
2023/01/23 11:07:14;;;;;;;21.83;13.30;;;2.90;99.90;;;;;;5062955;28;20451;-70
2023/01/23 11:09:59;;;;;;;16.47;11.73;;;2.80;99.90;;;;;;5061008;28;20405;-70
2023/01/23 11:12:26;;;;;;;18.70;12.37;;;2.90;99.90;;;;;;5063240;28;20843;-71
2023/01/23 11:15:20;;;;;;;18.00;11.43;;;2.90;99.90;;;;;;5055069;28;20420;-70
2023/01/23 11:17:46;;;;;;;20.67;11.13;;;3.00;99.90;;;;;;5051851;28;20438;-70
2023/01/23 11:20:34;;;;;;;18.63;12.30;;;3.10;99.90;;;;;;5063285;28;20417;-69
2023/01/23 11:23:02;;;;;;;18.53;12.63;;;3.00;99.90;;;;;;5055803;28;20417;-71
2023/01/23 11:25:32;;;;;;;23.10;12.93;;;3.00;99.90;;;;;;5065983;28;20938;-70
2023/01/23 11:28:01;;;;;;;22.03;12.70;;;3.00;99.90;;;;;;5054349;28;20924;-70
2023/01/23 11:31:11;;;;;;;15.73;11.03;;;3.00;99.90;;;;;;5059354;28;20408;-71
2023/01/23 11:34:00;;;;;;;18.20;12.13;;;2.90;99.90;;;;;;5054760;28;20418;-70
2023/01/23 11:37:13;;;;;;;21.93;13.47;;;2.90;99.90;;;;;;5062099;28;20840;-70
2023/01/23 11:40:06;;;;;;;19.77;12.97;;;2.90;99.90;;;;;;5060838;28;20960;-69
2023/01/23 11:42:34;;;;;;;26.17;14.70;;;2.90;99.90;;;;;;5063294;28;20416;-70
2023/01/23 11:45:00;;;;;;;18.27;12.33;;;2.90;99.90;;;;;;5054260;28;20449;-70
2023/01/23 11:47:42;;;;;;;22.93;12.00;;;2.90;99.90;;;;;;5059362;28;20563;-70
2023/01/23 11:50:27;;;;;;;21.10;14.17;;;2.90;99.90;;;;;;5051197;28;20747;-70
2023/01/23 11:53:34;;;;;;;22.50;11.60;;;2.80;99.90;;;;;;5064846;28;20428;-69
2023/01/23 11:56:32;;;;;;;24.17;12.30;;;2.80;99.90;;;;;;5066649;28;20969;-69
2023/01/23 11:59:23;;;;;;;15.23;10.83;;;2.80;99.90;;;;;;5065332;28;21012;-70
2023/01/23 12:02:11;;;;;;;18.33;12.77;;;2.80;99.90;;;;;;5063983;28;20412;-71
2023/01/23 12:05:07;;;;;;;18.03;12.23;;;2.90;99.90;;;;;;5063294;28;20405;-71
2023/01/23 12:07:47;;;;;;;16.43;11.93;;;2.90;99.90;;;;;;5063492;28;20449;-71
2023/01/23 12:10:29;;;;;;;19.67;12.40;;;2.90;99.90;;;;;;5067196;28;20435;-71
2023/01/23 12:13:28;;;;;;;17.00;10.90;;;2.90;99.90;;;;;;5062222;28;20567;-70
2023/01/23 12:16:21;;;;;;;14.80;11.40;;;3.00;99.90;;;;;;5061997;28;20417;-70
2023/01/23 12:19:05;;;;;;;17.57;10.90;;;3.00;99.90;;;;;;5063594;28;20409;-71
2023/01/23 12:21:54;;;;;;;14.00;10.13;;;3.00;99.90;;;;;;5065749;28;20404;-70
2023/01/23 12:24:38;;;;;;;12.77;10.20;;;3.00;99.90;;;;;;5062386;28;20420;-69
2023/01/23 12:27:35;;;;;;;15.57;10.80;;;3.00;99.90;;;;;;5058428;28;20512;-70
2023/01/23 12:30:01;;;;;;;17.07;10.83;;;3.10;99.90;;;;;;5054745;28;20412;-69
2023/01/23 12:32:54;;;;;;;15.83;10.43;;;3.00;99.90;;;;;;5059484;28;20406;-70
2023/01/23 12:35:45;;;;;;;13.83;9.53;;;3.00;99.90;;;;;;5055475;28;20261;-69
2023/01/23 12:38:26;;;;;;;18.83;9.90;;;3.00;99.90;;;;;;5056402;28;20412;-70
2023/01/23 12:41:07;;;;;;;17.27;10.13;;;3.10;99.90;;;;;;5057576;28;20405;-70
2023/01/23 12:43:41;;;;;;;17.27;10.53;;;3.20;99.90;;;;;;5065770;28;20400;-71
2023/01/23 12:46:17;;;;;;;11.97;9.43;;;3.30;99.90;;;;;;5060361;28;20491;-70
2023/01/23 12:49:04;;;;;;;16.73;10.53;;;3.20;99.90;;;;;;5063881;28;20420;-70
2023/01/23 12:51:38;;;;;;;16.27;9.90;;;3.30;99.90;;;;;;5058342;28;20393;-70
2023/01/23 12:54:10;;;;;;;13.50;8.37;;;3.30;99.90;;;;;;5056648;28;20413;-70
2023/01/23 12:56:38;;;;;;;19.43;9.80;;;3.30;99.90;;;;;;5044016;28;20406;-70
2023/01/23 12:59:07;;;;;;;14.20;8.57;;;3.20;99.90;;;;;;5067991;28;20804;-71